Time;durP1;ratioP1;P1;durP2;ratioP2;P2;SDS_P1;SDS_P2;PMS_P1;PMS_P2;Temp;Humidity;BMP_temperature;BMP_pressure;BME280_temperature;BME280_humidity;BME280_pressure;Samples;Min_cycle;Max_cycle;Signal;HPM_P1;HPM_P2
2024/01/28 00:00:14;;;;;;;8.68;3.13;;;;;;;;;;5068458;28;20064;-63
2024/01/28 00:02:41;;;;;;;11.73;2.75;;;;;;;;;;5069271;28;20059;-63
2024/01/28 00:05:08;;;;;;;9.85;2.95;;;;;;;;;;5070553;28;20133;-62
2024/01/28 00:07:34;;;;;;;9.60;3.30;;;;;;;;;;5048201;28;20139;-63
2024/01/28 00:10:01;;;;;;;9.73;3.30;;;;;;;;;;5048866;28;20147;-62
2024/01/28 00:12:29;;;;;;;10.38;2.80;;;;;;;;;;5072666;28;20067;-62
2024/01/28 00:14:56;;;;;;;9.77;2.53;;;;;;;;;;5038815;28;20044;-63
2024/01/28 00:17:23;;;;;;;7.95;2.58;;;;;;;;;;5067218;28;20075;-63
2024/01/28 00:19:49;;;;;;;7.10;3.00;;;;;;;;;;5055872;28;20056;-62
2024/01/28 00:22:16;;;;;;;11.23;3.05;;;;;;;;;;5037235;28;20063;-63
2024/01/28 00:24:43;;;;;;;12.27;2.90;;;;;;;;;;5037844;28;20143;-62
2024/01/28 00:27:10;;;;;;;6.43;2.40;;;;;;;;;;5039400;28;20057;-62
2024/01/28 00:29:41;;;;;;;10.98;3.05;;;;;;;;;;5039792;28;20053;-62
2024/01/28 00:32:08;;;;;;;;;;;;;;;;;;5031660;28;20049;-62
2024/01/28 00:34:36;;;;;;;10.38;2.97;;;;;;;;;;5038356;28;19944;-62
2024/01/28 00:37:03;;;;;;;9.40;3.03;;;;;;;;;;5045581;28;20040;-63
2024/01/28 00:39:30;;;;;;;13.07;4.25;;;;;;;;;;5057180;28;20083;-62
2024/01/28 00:41:57;;;;;;;7.28;2.72;;;;;;;;;;5050087;28;20048;-63
2024/01/28 00:44:24;;;;;;;9.52;3.30;;;;;;;;;;5038075;28;20061;-62
2024/01/28 00:46:54;;;;;;;10.43;3.35;;;;;;;;;;5033551;28;20141;-63
2024/01/28 00:49:23;;;;;;;12.80;3.45;;;;;;;;;;5038797;28;20052;-63
2024/01/28 00:51:53;;;;;;;13.55;3.10;;;;;;;;;;5037783;28;20121;-62
2024/01/28 00:54:19;;;;;;;9.65;2.85;;;;;;;;;;5041022;28;20044;-62
2024/01/28 00:56:46;;;;;;;9.88;3.30;;;;;;;;;;5049667;28;20049;-62
2024/01/28 00:59:13;;;;;;;12.35;3.55;;;;;;;;;;5021264;28;20063;-62
2024/01/28 01:01:40;;;;;;;9.77;3.00;;;;;;;;;;5021088;28;20059;-62
2024/01/28 01:04:09;;;;;;;9.90;3.38;;;;;;;;;;5034311;28;20063;-63
2024/01/28 01:06:37;;;;;;;13.15;3.85;;;;;;;;;;5044584;28;20109;-61
2024/01/28 01:09:04;;;;;;;8.40;3.60;;;;;;;;;;5036899;28;20076;-62
2024/01/28 01:11:30;;;;;;;8.30;3.15;;;;;;;;;;5050779;28;20053;-62
2024/01/28 01:13:57;;;;;;;9.85;3.47;;;;;;;;;;5030271;28;20232;-63
2024/01/28 01:16:24;;;;;;;9.43;3.47;;;;;;;;;;5048098;28;20139;-62
2024/01/28 01:18:51;;;;;;;13.25;3.70;;;;;;;;;;5040017;28;20045;-62
2024/01/28 01:21:19;;;;;;;11.63;3.63;;;;;;;;;;5035237;28;20067;-62
2024/01/28 01:23:45;;;;;;;16.63;4.20;;;;;;;;;;5031280;28;20156;-62
2024/01/28 01:26:12;;;;;;;12.13;3.50;;;;;;;;;;5007316;28;20056;-62
2024/01/28 01:28:39;;;;;;;8.98;2.97;;;;;;;;;;5049965;28;20064;-62
2024/01/28 01:31:06;;;;;;;9.10;3.10;;;;;;;;;;5052285;28;20118;-62
2024/01/28 01:33:32;;;;;;;9.30;3.05;;;;;;;;;;5030759;28;20084;-62
2024/01/28 01:35:59;;;;;;;10.55;3.72;;;;;;;;;;5028165;28;20084;-62
2024/01/28 01:38:27;;;;;;;10.00;3.03;;;;;;;;;;5035928;28;20137;-62
2024/01/28 01:40:54;;;;;;;22.80;7.00;;;;;;;;;;5050065;28;20089;-62
2024/01/28 01:43:21;;;;;;;39.10;14.30;;;;;;;;;;5036953;28;20175;-62
2024/01/28 01:45:53;;;;;;;21.65;8.93;;;;;;;;;;5030065;28;20167;-63
2024/01/28 01:48:20;;;;;;;19.88;5.68;;;;;;;;;;5055614;28;20075;-62
2024/01/28 01:50:47;;;;;;;7.55;3.58;;;;;;;;;;5057389;28;20116;-62
2024/01/28 01:53:14;;;;;;;8.15;2.88;;;;;;;;;;5040202;28;20141;-62
2024/01/28 01:55:43;;;;;;;9.40;3.10;;;;;;;;;;5023551;28;20063;-62
2024/01/28 01:58:11;;;;;;;10.82;3.20;;;;;;;;;;5034006;28;20099;-62
2024/01/28 02:00:38;;;;;;;9.13;3.35;;;;;;;;;;5054447;28;20149;-62
2024/01/28 02:03:05;;;;;;;11.27;3.80;;;;;;;;;;5036924;28;20151;-62
2024/01/28 02:05:32;;;;;;;8.13;3.10;;;;;;;;;;5052997;28;20139;-62
2024/01/28 02:07:59;;;;;;;10.60;3.10;;;;;;;;;;5029594;28;20045;-63
2024/01/28 02:10:26;;;;;;;12.93;3.33;;;;;;;;;;5055458;28;20052;-61
2024/01/28 02:12:54;;;;;;;7.30;2.70;;;;;;;;;;5054603;28;20064;-62
2024/01/28 02:15:21;;;;;;;8.73;3.22;;;;;;;;;;5055666;28;20056;-62
2024/01/28 02:17:48;;;;;;;9.82;3.05;;;;;;;;;;5028648;28;20058;-62
2024/01/28 02:20:15;;;;;;;9.70;2.85;;;;;;;;;;5036131;28;20106;-62
2024/01/28 02:22:41;;;;;;;7.15;2.83;;;;;;;;;;5037576;28;20044;-62
2024/01/28 02:25:13;;;;;;;8.77;2.75;;;;;;;;;;5038927;28;20054;-62
2024/01/28 02:27:46;;;;;;;12.77;2.58;;;;;;;;;;5032750;28;20044;-61
2024/01/28 02:30:13;;;;;;;11.85;2.85;;;;;;;;;;5029963;28;20053;-62
2024/01/28 02:32:47;;;;;;;9.65;2.90;;;;;;;;;;5053854;28;20080;-62
2024/01/28 02:35:14;;;;;;;12.50;3.08;;;;;;;;;;5056891;28;20394;-62
2024/01/28 02:37:40;;;;;;;7.00;2.78;;;;;;;;;;5019029;28;20064;-61
2024/01/28 02:40:12;;;;;;;8.60;2.75;;;;;;;;;;5029967;28;20045;-62
2024/01/28 02:42:39;;;;;;;9.45;2.97;;;;;;;;;;5036225;28;20055;-62
2024/01/28 02:45:07;;;;;;;9.65;2.97;;;;;;;;;;5039933;28;20072;-62
2024/01/28 02:47:33;;;;;;;11.82;2.80;;;;;;;;;;5033523;28;20083;-62
2024/01/28 02:50:00;;;;;;;8.13;2.65;;;;;;;;;;5050401;28;20102;-62
2024/01/28 02:52:27;;;;;;;9.80;3.08;;;;;;;;;;5054396;28;20044;-63
2024/01/28 02:54:54;;;;;;;7.88;2.45;;;;;;;;;;5035988;28;20056;-62
2024/01/28 02:59:51;;;;;;;8.02;3.00;;;;;;;;;;5005635;28;20065;-64
2024/01/28 03:02:18;;;;;;;9.82;2.63;;;;;;;;;;5013589;28;20053;-63
2024/01/28 03:04:45;;;;;;;8.82;3.10;;;;;;;;;;4985129;28;20076;-62
2024/01/28 03:07:12;;;;;;;9.75;2.95;;;;;;;;;;4992037;28;20149;-62
2024/01/28 03:09:39;;;;;;;7.97;3.22;;;;;;;;;;4988469;28;20073;-63
2024/01/28 03:12:09;;;;;;;7.43;2.47;;;;;;;;;;4986282;28;20069;-63
2024/01/28 03:14:36;;;;;;;9.85;3.03;;;;;;;;;;4986903;28;20149;-62
2024/01/28 03:17:04;;;;;;;9.10;2.92;;;;;;;;;;4986593;28;20076;-62
2024/01/28 03:19:31;;;;;;;7.47;2.60;;;;;;;;;;4988966;28;20073;-62
2024/01/28 03:21:58;;;;;;;7.05;2.72;;;;;;;;;;4987377;28;20057;-62
2024/01/28 03:24:25;;;;;;;6.50;2.40;;;;;;;;;;4980753;28;20104;-64
2024/01/28 03:26:51;;;;;;;9.30;2.88;;;;;;;;;;4995829;28;20111;-62
2024/01/28 03:29:18;;;;;;;5.68;1.92;;;;;;;;;;4993463;28;20089;-62
2024/01/28 03:31:46;;;;;;;8.02;2.30;;;;;;;;;;5009324;28;20115;-61
2024/01/28 03:34:18;;;;;;;10.82;2.75;;;;;;;;;;4975116;28;20045;-62
2024/01/28 03:36:44;;;;;;;10.48;2.83;;;;;;;;;;4992556;28;20053;-62
2024/01/28 03:39:14;;;;;;;9.70;2.83;;;;;;;;;;4996705;28;20159;-63
2024/01/28 03:41:44;;;;;;;7.97;2.35;;;;;;;;;;4993058;28;20060;-62
2024/01/28 03:44:11;;;;;;;12.00;2.78;;;;;;;;;;5002058;28;20069;-62
2024/01/28 03:46:38;;;;;;;9.45;2.40;;;;;;;;;;4975217;28;20057;-62
2024/01/28 03:49:06;;;;;;;7.10;2.50;;;;;;;;;;4977530;28;20046;-62
2024/01/28 03:51:34;;;;;;;12.05;2.92;;;;;;;;;;4997241;28;20057;-61
2024/01/28 03:54:01;;;;;;;9.32;2.90;;;;;;;;;;4963306;28;20141;-62
2024/01/28 03:56:27;;;;;;;11.95;2.67;;;;;;;;;;4979570;28;20053;-62
2024/01/28 03:58:54;;;;;;;9.70;2.47;;;;;;;;;;4977027;28;20065;-62
2024/01/28 04:01:31;;;;;;;8.50;2.85;;;;;;;;;;4979191;28;20074;-62
2024/01/28 04:03:58;;;;;;;7.15;2.58;;;;;;;;;;4969325;28;20057;-62
2024/01/28 04:06:24;;;;;;;7.80;3.08;;;;;;;;;;4978304;28;20211;-63
2024/01/28 04:08:55;;;;;;;6.80;2.50;;;;;;;;;;4976761;28;20081;-63
2024/01/28 04:11:24;;;;;;;7.65;2.53;;;;;;;;;;4977632;28;20053;-62
2024/01/28 04:13:51;;;;;;;4.40;1.98;;;;;;;;;;4965647;28;20058;-62
2024/01/28 04:16:18;;;;;;;8.43;2.35;;;;;;;;;;4977209;28;20085;-62
2024/01/28 04:18:44;;;;;;;6.72;2.08;;;;;;;;;;4976207;28;20116;-62
2024/01/28 04:21:13;;;;;;;7.68;2.75;;;;;;;;;;4977118;28;20054;-62
2024/01/28 04:23:40;;;;;;;;;;;;;;;;;;4964121;28;20061;-62
2024/01/28 04:26:13;;;;;;;8.57;2.58;;;;;;;;;;4989671;28;20062;-62
2024/01/28 04:28:41;;;;;;;10.73;2.90;;;;;;;;;;4998987;28;20049;-62
2024/01/28 04:31:08;;;;;;;10.80;2.90;;;;;;;;;;4996813;28;20041;-61
2024/01/28 04:33:35;;;;;;;10.60;2.67;;;;;;;;;;4996450;28;20046;-63
2024/01/28 04:36:01;;;;;;;12.27;2.85;;;;;;;;;;5012525;28;20363;-62
2024/01/28 04:38:28;;;;;;;6.40;2.72;;;;;;;;;;5014603;28;20100;-62
2024/01/28 04:40:55;;;;;;;11.15;3.15;;;;;;;;;;5016365;28;20042;-62
2024/01/28 04:43:25;;;;;;;14.52;2.60;;;;;;;;;;4995055;28;20057;-63
2024/01/28 04:45:52;;;;;;;12.82;2.58;;;;;;;;;;4980210;28;20065;-62
2024/01/28 04:48:19;;;;;;;7.78;2.78;;;;;;;;;;4997188;28;20055;-64
2024/01/28 04:50:48;;;;;;;12.68;2.92;;;;;;;;;;4997308;28;20172;-62
2024/01/28 04:53:14;;;;;;;7.35;2.83;;;;;;;;;;4995156;28;20407;-61
2024/01/28 04:55:48;;;;;;;10.55;2.72;;;;;;;;;;4980964;28;20060;-62
2024/01/28 04:58:14;;;;;;;8.52;2.67;;;;;;;;;;5013242;28;20057;-61
2024/01/28 05:00:43;;;;;;;8.60;2.70;;;;;;;;;;4995534;28;20080;-62
2024/01/28 05:03:12;;;;;;;8.73;2.53;;;;;;;;;;4994849;28;20123;-62
2024/01/28 05:05:38;;;;;;;11.23;3.10;;;;;;;;;;4990575;28;20053;-62
2024/01/28 05:08:06;;;;;;;7.68;2.63;;;;;;;;;;4988706;28;20052;-62
2024/01/28 05:10:33;;;;;;;5.95;2.28;;;;;;;;;;4996136;28;20057;-61
2024/01/28 05:13:00;;;;;;;6.38;2.25;;;;;;;;;;5013249;28;20060;-62
2024/01/28 05:15:27;;;;;;;9.60;2.03;;;;;;;;;;4993322;28;20146;-62
2024/01/28 05:17:55;;;;;;;13.18;2.75;;;;;;;;;;5008189;28;20063;-62
2024/01/28 05:20:22;;;;;;;11.70;3.33;;;;;;;;;;4995490;28;20136;-62
2024/01/28 05:22:49;;;;;;;7.43;2.67;;;;;;;;;;4996172;28;20113;-62
2024/01/28 05:25:17;;;;;;;6.18;2.15;;;;;;;;;;5008654;28;20123;-62
2024/01/28 05:27:44;;;;;;;8.65;2.78;;;;;;;;;;4991553;28;20061;-62
2024/01/28 05:30:12;;;;;;;7.07;2.47;;;;;;;;;;5008608;28;20135;-62
2024/01/28 05:32:39;;;;;;;14.07;2.85;;;;;;;;;;4993128;28;20057;-62
2024/01/28 05:35:10;;;;;;;6.38;2.53;;;;;;;;;;4990081;28;20061;-62
2024/01/28 05:37:40;;;;;;;10.55;2.72;;;;;;;;;;4994537;28;20119;-62
2024/01/28 05:40:09;;;;;;;8.90;2.95;;;;;;;;;;4991672;28;20061;-62
2024/01/28 05:42:36;;;;;;;8.10;2.88;;;;;;;;;;4996575;28;20107;-62
2024/01/28 05:45:03;;;;;;;11.88;2.50;;;;;;;;;;5005132;28;20061;-62
2024/01/28 05:47:30;;;;;;;10.15;2.67;;;;;;;;;;5009016;28;20127;-62
2024/01/28 05:49:57;;;;;;;6.32;2.75;;;;;;;;;;4990335;28;20088;-62
2024/01/28 05:52:25;;;;;;;7.55;3.00;;;;;;;;;;5010664;28;20050;-64
2024/01/28 05:54:52;;;;;;;6.97;2.42;;;;;;;;;;5001806;28;20056;-62
2024/01/28 05:57:19;;;;;;;8.35;2.72;;;;;;;;;;4993819;28;20053;-63
2024/01/28 05:59:46;;;;;;;8.38;2.97;;;;;;;;;;4992771;28;20096;-62
2024/01/28 06:02:13;;;;;;;9.50;3.17;;;;;;;;;;4990769;28;20054;-62
2024/01/28 06:04:40;;;;;;;13.82;3.03;;;;;;;;;;4991390;28;20052;-61
2024/01/28 06:07:06;;;;;;;4.85;2.00;;;;;;;;;;4992935;28;20053;-61
2024/01/28 06:09:35;;;;;;;5.97;2.08;;;;;;;;;;4996249;28;20068;-62
2024/01/28 06:12:01;;;;;;;5.25;2.08;;;;;;;;;;4984030;28;20186;-62
2024/01/28 06:14:28;;;;;;;11.65;3.28;;;;;;;;;;4989340;28;20053;-62
2024/01/28 06:16:56;;;;;;;12.13;3.03;;;;;;;;;;4993423;28;20049;-63
2024/01/28 06:19:22;;;;;;;8.25;2.63;;;;;;;;;;4994166;28;20122;-62
2024/01/28 06:21:51;;;;;;;5.97;2.15;;;;;;;;;;4989404;28;20144;-61
2024/01/28 06:24:18;;;;;;;8.30;2.35;;;;;;;;;;4983880;28;20077;-62
2024/01/28 06:26:46;;;;;;;10.35;3.63;;;;;;;;;;4991001;28;20049;-62
2024/01/28 06:29:13;;;;;;;13.95;2.88;;;;;;;;;;4991374;28;20068;-62
2024/01/28 06:31:41;;;;;;;8.02;2.85;;;;;;;;;;5005431;28;20049;-61
2024/01/28 06:34:07;;;;;;;10.60;2.63;;;;;;;;;;4977468;28;20060;-62
2024/01/28 06:36:34;;;;;;;6.88;2.35;;;;;;;;;;5011523;28;20064;-62
2024/01/28 06:39:01;;;;;;;9.65;2.42;;;;;;;;;;4991975;28;20041;-62
2024/01/28 06:41:28;;;;;;;8.57;2.88;;;;;;;;;;4995970;28;20126;-62
2024/01/28 06:43:56;;;;;;;9.57;2.80;;;;;;;;;;5001984;28;20053;-61
2024/01/28 06:46:23;;;;;;;4.05;1.65;;;;;;;;;;4997237;28;20050;-63
2024/01/28 06:48:50;;;;;;;9.18;2.33;;;;;;;;;;4995945;28;20064;-62
2024/01/28 06:51:16;;;;;;;7.53;2.38;;;;;;;;;;5011961;28;20057;-62
2024/01/28 06:53:44;;;;;;;10.52;2.35;;;;;;;;;;4988607;28;20157;-61
2024/01/28 06:56:14;;;;;;;7.28;2.42;;;;;;;;;;4990116;28;20056;-63
2024/01/28 06:58:43;;;;;;;7.72;2.50;;;;;;;;;;4995355;28;20088;-61
2024/01/28 07:01:15;;;;;;;5.55;2.42;;;;;;;;;;5010064;28;20076;-62
2024/01/28 07:03:48;;;;;;;7.25;2.28;;;;;;;;;;4989973;28;20140;-62
2024/01/28 07:06:15;;;;;;;6.72;2.45;;;;;;;;;;5010389;28;20120;-63
2024/01/28 07:08:42;;;;;;;12.70;2.75;;;;;;;;;;4997356;28;20041;-63
2024/01/28 07:11:08;;;;;;;4.60;2.08;;;;;;;;;;4993517;28;20190;-62
2024/01/28 07:13:35;;;;;;;8.25;2.67;;;;;;;;;;4977617;28;20045;-63
2024/01/28 07:16:02;;;;;;;7.65;2.50;;;;;;;;;;4987776;28;20050;-64
2024/01/28 07:18:30;;;;;;;8.90;2.70;;;;;;;;;;4995371;28;20053;-62
2024/01/28 07:20:57;;;;;;;8.10;2.38;;;;;;;;;;4995636;28;20057;-63
2024/01/28 07:23:24;;;;;;;7.15;2.70;;;;;;;;;;4986022;28;20053;-62
2024/01/28 07:25:51;;;;;;;10.85;2.22;;;;;;;;;;4992763;28;20045;-62
2024/01/28 07:28:18;;;;;;;9.50;2.63;;;;;;;;;;4999415;28;20049;-62
2024/01/28 07:30:45;;;;;;;11.63;2.75;;;;;;;;;;5016893;28;20132;-62
2024/01/28 07:33:12;;;;;;;6.20;1.90;;;;;;;;;;5000162;28;20057;-62
2024/01/28 07:35:44;;;;;;;9.40;2.13;;;;;;;;;;4993828;28;20057;-62
2024/01/28 07:38:11;;;;;;;4.57;1.83;;;;;;;;;;4975368;28;20050;-62
2024/01/28 07:40:39;;;;;;;8.07;2.55;;;;;;;;;;4978797;28;20057;-64
2024/01/28 07:43:06;;;;;;;7.60;2.80;;;;;;;;;;4996613;28;20084;-62
2024/01/28 07:45:36;;;;;;;8.20;2.22;;;;;;;;;;4982899;28;20096;-61
2024/01/28 07:48:03;;;;;;;6.13;2.15;;;;;;;;;;4994217;28;20049;-61
2024/01/28 07:50:29;;;;;;;9.07;2.22;;;;;;;;;;4999095;28;20045;-62
2024/01/28 07:52:58;;;;;;;8.15;2.50;;;;;;;;;;5013270;28;20049;-61
2024/01/28 07:55:25;;;;;;;6.40;2.30;;;;;;;;;;4983178;28;20080;-62
2024/01/28 07:57:53;;;;;;;11.73;2.28;;;;;;;;;;4992984;28;20041;-61
2024/01/28 08:00:20;;;;;;;6.75;2.38;;;;;;;;;;4998778;28;20108;-62
2024/01/28 08:02:47;;;;;;;8.23;2.38;;;;;;;;;;5013653;28;20049;-62
2024/01/28 08:05:14;;;;;;;9.48;2.42;;;;;;;;;;4989492;28;20061;-62
2024/01/28 08:07:45;;;;;;;9.57;2.25;;;;;;;;;;5005765;28;20061;-64
2024/01/28 08:10:14;;;;;;;8.00;2.58;;;;;;;;;;4996601;28;20077;-62
2024/01/28 08:12:41;;;;;;;8.70;2.20;;;;;;;;;;5017098;28;20149;-63
2024/01/28 08:15:08;;;;;;;10.23;2.72;;;;;;;;;;4993162;28;20049;-62
2024/01/28 08:17:35;;;;;;;12.13;2.45;;;;;;;;;;5017105;28;20084;-62
2024/01/28 08:20:03;;;;;;;9.20;2.17;;;;;;;;;;5011299;28;20446;-62
2024/01/28 08:22:30;;;;;;;9.75;2.83;;;;;;;;;;4998807;28;20053;-62
2024/01/28 08:24:57;;;;;;;10.18;3.80;;;;;;;;;;4993777;28;20200;-61
2024/01/28 08:27:26;;;;;;;9.30;2.60;;;;;;;;;;4997742;28;20061;-61
2024/01/28 08:29:53;;;;;;;2.95;1.42;;;;;;;;;;5002464;28;20053;-62
2024/01/28 08:32:19;;;;;;;5.55;2.05;;;;;;;;;;4992959;28;20041;-62
2024/01/28 08:34:51;;;;;;;9.95;2.13;;;;;;;;;;4979618;28;20052;-62
2024/01/28 08:37:18;;;;;;;8.38;2.22;;;;;;;;;;4991559;28;20156;-61
2024/01/28 08:39:45;;;;;;;10.85;2.65;;;;;;;;;;4990732;28;20049;-61
2024/01/28 08:42:12;;;;;;;6.65;2.30;;;;;;;;;;4986374;28;20116;-61
2024/01/28 08:44:42;;;;;;;5.53;1.95;;;;;;;;;;4986606;28;20045;-61
2024/01/28 08:47:11;;;;;;;6.32;2.38;;;;;;;;;;5011360;28;20041;-61
2024/01/28 08:49:38;;;;;;;6.70;2.28;;;;;;;;;;4990039;28;20049;-63
2024/01/28 08:52:05;;;;;;;5.15;2.10;;;;;;;;;;4986713;28;20159;-62
2024/01/28 08:54:33;;;;;;;11.00;2.55;;;;;;;;;;4961612;28;20062;-62
2024/01/28 08:57:00;;;;;;;7.25;2.15;;;;;;;;;;4991377;28;20058;-62
2024/01/28 08:59:27;;;;;;;5.55;2.15;;;;;;;;;;5009788;28;20061;-62
2024/01/28 09:01:57;;;;;;;13.15;2.80;;;;;;;;;;5007048;28;20042;-62
2024/01/28 09:04:24;;;;;;;7.55;2.03;;;;;;;;;;4964884;28;20076;-62
2024/01/28 09:06:51;;;;;;;6.35;1.92;;;;;;;;;;5009451;28;20053;-62
2024/01/28 09:09:18;;;;;;;8.25;2.22;;;;;;;;;;4997868;28;20301;-62
2024/01/28 09:11:48;;;;;;;6.38;1.85;;;;;;;;;;4989905;28;20050;-63
2024/01/28 09:14:15;;;;;;;8.10;2.35;;;;;;;;;;5005818;28;20088;-62
2024/01/28 09:16:42;;;;;;;6.88;2.53;;;;;;;;;;5013078;28;20059;-62
2024/01/28 09:19:10;;;;;;;6.45;2.15;;;;;;;;;;4993303;28;20056;-62
2024/01/28 09:21:37;;;;;;;7.07;1.20;;;;;;;;;;5011500;28;20053;-62
2024/01/28 09:24:04;;;;;;;8.07;2.25;;;;;;;;;;4965200;28;20050;-60
2024/01/28 09:26:31;;;;;;;11.38;2.50;;;;;;;;;;4995613;28;20064;-62
2024/01/28 09:28:58;;;;;;;16.48;3.08;;;;;;;;;;4992918;28;20280;-61
2024/01/28 09:31:25;;;;;;;6.68;2.17;;;;;;;;;;4992027;28;20153;-61
2024/01/28 09:33:52;;;;;;;4.43;1.92;;;;;;;;;;4975860;28;20068;-63
2024/01/28 09:36:21;;;;;;;7.38;2.38;;;;;;;;;;4984654;28;20057;-62
2024/01/28 09:38:47;;;;;;;13.52;2.40;;;;;;;;;;5007701;28;20096;-62
2024/01/28 09:41:23;;;;;;;8.80;2.65;;;;;;;;;;4993567;28;20068;-61
2024/01/28 09:43:54;;;;;;;8.32;2.50;;;;;;;;;;4994529;28;20061;-62
2024/01/28 09:46:22;;;;;;;9.43;2.50;;;;;;;;;;4962241;28;20049;-62
2024/01/28 09:48:51;;;;;;;9.73;3.78;;;;;;;;;;4994311;28;20054;-62
2024/01/28 09:51:21;;;;;;;11.15;2.78;;;;;;;;;;4993113;28;20049;-62
2024/01/28 09:53:52;;;;;;;8.50;2.85;;;;;;;;;;4994937;28;20060;-62
2024/01/28 09:56:19;;;;;;;5.50;2.25;;;;;;;;;;4989555;28;20061;-63
2024/01/28 09:58:47;;;;;;;7.97;2.72;;;;;;;;;;4992372;28;20049;-62
2024/01/28 10:01:16;;;;;;;10.95;3.17;;;;;;;;;;4993807;28;20061;-63
2024/01/28 10:03:44;;;;;;;8.93;2.50;;;;;;;;;;5005444;28;20111;-62
2024/01/28 10:06:17;;;;;;;6.55;2.28;;;;;;;;;;4987214;28;20062;-64
2024/01/28 10:08:47;;;;;;;8.32;2.50;;;;;;;;;;4994530;28;20153;-61
2024/01/28 10:11:15;;;;;;;7.40;2.42;;;;;;;;;;4987071;28;20058;-62
2024/01/28 10:13:43;;;;;;;3.65;1.90;;;;;;;;;;4981323;28;20039;-64
2024/01/28 10:16:10;;;;;;;8.00;2.65;;;;;;;;;;4984601;28;20129;-61
2024/01/28 10:18:37;;;;;;;5.38;2.22;;;;;;;;;;4994428;28;20068;-62
2024/01/28 10:21:04;;;;;;;5.72;1.88;;;;;;;;;;4995207;28;20222;-62
2024/01/28 10:23:36;;;;;;;5.72;2.22;;;;;;;;;;4980803;28;20140;-63
2024/01/28 10:26:06;;;;;;;9.93;2.42;;;;;;;;;;5001969;28;20046;-61
2024/01/28 10:28:33;;;;;;;10.25;4.32;;;;;;;;;;4992840;28;20073;-61
2024/01/28 10:31:02;;;;;;;11.32;3.33;;;;;;;;;;4992679;28;20060;-61
2024/01/28 10:33:29;;;;;;;10.10;2.35;;;;;;;;;;4989751;28;20057;-63
2024/01/28 10:35:59;;;;;;;8.60;3.20;;;;;;;;;;4968795;28;20060;-62
2024/01/28 10:38:27;;;;;;;7.43;2.08;;;;;;;;;;4995768;28;20049;-61
2024/01/28 10:40:54;;;;;;;8.80;2.20;;;;;;;;;;4994072;28;20144;-62
2024/01/28 10:43:27;;;;;;;4.50;1.92;;;;;;;;;;4995276;28;20081;-61
2024/01/28 10:45:57;;;;;;;5.60;2.22;;;;;;;;;;4926747;28;20057;-61
2024/01/28 10:48:24;;;;;;;5.20;2.25;;;;;;;;;;4993673;28;20042;-62
2024/01/28 10:50:52;;;;;;;3.20;1.40;;;;;;;;;;5001966;28;20050;-61
2024/01/28 10:53:20;;;;;;;14.57;4.97;;;;;;;;;;5005842;28;20069;-61
2024/01/28 10:55:50;;;;;;;14.07;4.80;;;;;;;;;;4986101;28;20045;-62
2024/01/28 10:58:17;;;;;;;8.15;2.65;;;;;;;;;;4994648;28;20057;-62
2024/01/28 11:00:46;;;;;;;7.80;2.77;;;;;;;;;;4995843;28;20060;-61
2024/01/28 11:03:15;;;;;;;7.25;2.30;;;;;;;;;;5006855;28;20126;-61
2024/01/28 11:05:42;;;;;;;11.07;1.95;;;;;;;;;;4938481;28;20052;-62
2024/01/28 11:08:09;;;;;;;7.22;2.10;;;;;;;;;;5009195;28;20046;-61
2024/01/28 11:10:36;;;;;;;11.38;2.35;;;;;;;;;;4999519;28;20135;-63
2024/01/28 11:13:05;;;;;;;2.88;1.42;;;;;;;;;;5001135;28;20171;-63
2024/01/28 11:15:32;;;;;;;3.75;1.70;;;;;;;;;;4947193;28;20270;-63
2024/01/28 11:18:01;;;;;;;9.70;2.10;;;;;;;;;;4991679;28;20058;-63
2024/01/28 11:20:30;;;;;;;8.10;2.05;;;;;;;;;;4997524;28;20081;-63
2024/01/28 11:22:59;;;;;;;8.23;2.38;;;;;;;;;;4987884;28;20062;-63
2024/01/28 11:25:27;;;;;;;6.50;2.15;;;;;;;;;;4983015;28;20054;-63
2024/01/28 11:27:59;;;;;;;7.15;1.83;;;;;;;;;;4992538;28;20061;-64
2024/01/28 11:30:26;;;;;;;10.10;2.75;;;;;;;;;;5006922;28;20135;-63
2024/01/28 11:32:58;;;;;;;8.45;2.25;;;;;;;;;;5008574;28;20062;-64
2024/01/28 11:35:26;;;;;;;5.13;2.17;;;;;;;;;;4999017;28;20064;-63
2024/01/28 11:37:56;;;;;;;5.80;2.15;;;;;;;;;;5009064;28;20049;-63
2024/01/28 11:40:32;;;;;;;4.60;1.98;;;;;;;;;;5002724;28;20058;-63
2024/01/28 11:42:59;;;;;;;10.15;2.25;;;;;;;;;;5000953;28;20058;-62
2024/01/28 11:45:26;;;;;;;6.95;2.22;;;;;;;;;;4964187;28;20050;-62
2024/01/28 11:47:53;;;;;;;11.18;2.38;;;;;;;;;;4988951;28;20133;-63
2024/01/28 11:50:21;;;;;;;2.90;1.70;;;;;;;;;;4994052;28;20057;-63
2024/01/28 11:52:49;;;;;;;6.90;1.90;;;;;;;;;;4994879;28;20088;-63
2024/01/28 11:55:20;;;;;;;3.15;1.67;;;;;;;;;;4970439;28;20065;-63
2024/01/28 11:57:48;;;;;;;13.57;3.35;;;;;;;;;;4992064;28;20046;-63
2024/01/28 12:00:16;;;;;;;8.85;2.50;;;;;;;;;;4996979;28;20164;-63
2024/01/28 12:02:44;;;;;;;9.85;2.60;;;;;;;;;;4997924;28;20049;-63
2024/01/28 12:05:12;;;;;;;10.60;2.45;;;;;;;;;;4955932;28;20050;-64
2024/01/28 12:07:39;;;;;;;;;;;;;;;;;;4978633;28;20057;-63
2024/01/28 12:10:22;;;;;;;6.82;2.13;;;;;;;;;;4987522;28;19967;-62
2024/01/28 12:12:59;;;;;;;2.88;1.52;;;;;;;;;;4982684;28;20066;-63
2024/01/28 12:15:26;;;;;;;3.30;1.42;;;;;;;;;;4921645;28;20123;-63
2024/01/28 12:17:55;;;;;;;7.22;1.75;;;;;;;;;;4990509;28;20053;-64
2024/01/28 12:20:24;;;;;;;;;;;;;;;;;;4997911;28;20048;-63
2024/01/28 12:22:51;;;;;;;4.57;1.83;;;;;;;;;;5000215;28;19947;-62
2024/01/28 12:25:24;;;;;;;2.60;0.85;;;;;;;;;;4952846;28;20050;-63
2024/01/28 12:27:52;;;;;;;5.03;1.75;;;;;;;;;;4976442;28;20050;-63
2024/01/28 12:30:22;;;;;;;4.68;1.80;;;;;;;;;;4978258;28;20053;-62
2024/01/28 12:32:51;;;;;;;5.75;1.90;;;;;;;;;;4981423;28;20064;-64
2024/01/28 12:35:18;;;;;;;5.93;2.17;;;;;;;;;;4967645;28;20225;-62
2024/01/28 12:37:46;;;;;;;6.20;2.00;;;;;;;;;;4995671;28;20152;-67
2024/01/28 12:40:13;;;;;;;7.28;2.25;;;;;;;;;;4978229;28;20064;-62
2024/01/28 12:42:41;;;;;;;5.20;2.00;;;;;;;;;;4981269;28;20076;-64
2024/01/28 12:45:14;;;;;;;5.80;2.22;;;;;;;;;;4982405;28;20069;-63
2024/01/28 12:47:50;;;;;;;6.68;2.08;;;;;;;;;;4995896;28;20077;-64
2024/01/28 12:50:17;;;;;;;7.38;2.10;;;;;;;;;;4997609;28;20081;-64
2024/01/28 12:52:44;;;;;;;5.95;2.03;;;;;;;;;;4981344;28;20038;-62
2024/01/28 12:55:12;;;;;;;4.63;1.73;;;;;;;;;;4986136;28;20067;-62
2024/01/28 12:57:42;;;;;;;7.22;2.30;;;;;;;;;;4999730;28;20057;-62
2024/01/28 13:00:16;;;;;;;8.68;2.42;;;;;;;;;;4996236;28;20042;-62
2024/01/28 13:02:43;;;;;;;6.28;1.98;;;;;;;;;;5016623;28;20056;-64
2024/01/28 13:05:12;;;;;;;6.63;2.33;;;;;;;;;;4995293;28;20095;-62
2024/01/28 13:07:40;;;;;;;8.25;2.30;;;;;;;;;;5015793;28;20061;-64
2024/01/28 13:10:08;;;;;;;8.35;2.85;;;;;;;;;;5001425;28;20097;-62
2024/01/28 13:12:38;;;;;;;10.95;2.45;;;;;;;;;;4999895;28;20085;-63
2024/01/28 13:15:08;;;;;;;5.00;2.00;;;;;;;;;;4962877;28;20046;-63
2024/01/28 13:17:42;;;;;;;4.68;1.83;;;;;;;;;;4978268;28;20133;-63
2024/01/28 13:20:11;;;;;;;3.33;1.40;;;;;;;;;;4994637;28;20237;-63
2024/01/28 13:22:42;;;;;;;5.53;2.00;;;;;;;;;;4978917;28;20046;-63
2024/01/28 13:25:14;;;;;;;6.40;2.00;;;;;;;;;;4950657;28;20054;-63
2024/01/28 13:27:44;;;;;;;5.20;1.75;;;;;;;;;;4995961;28;20049;-63
2024/01/28 13:30:14;;;;;;;5.30;2.03;;;;;;;;;;4992929;28;20063;-63
2024/01/28 13:32:46;;;;;;;4.20;1.73;;;;;;;;;;4996616;28;20277;-63
2024/01/28 13:35:13;;;;;;;7.45;2.10;;;;;;;;;;4947434;28;20061;-63
2024/01/28 13:37:41;;;;;;;8.45;1.70;;;;;;;;;;4996448;28;20057;-63
2024/01/28 13:40:12;;;;;;;;;;;;;;;;;;4995129;28;20064;-62
2024/01/28 13:42:39;;;;;;;7.20;2.15;;;;;;;;;;4996566;28;19933;-63
2024/01/28 13:45:11;;;;;;;4.07;1.65;;;;;;;;;;4976876;28;20097;-62
2024/01/28 13:47:37;;;;;;;4.10;1.55;;;;;;;;;;4995037;28;20050;-63
2024/01/28 13:50:14;;;;;;;10.38;2.25;;;;;;;;;;4993428;28;20079;-62
2024/01/28 13:52:41;;;;;;;7.60;2.10;;;;;;;;;;4995239;28;20054;-62
2024/01/28 13:55:10;;;;;;;8.30;3.20;;;;;;;;;;4990565;28;20116;-65
2024/01/28 13:57:38;;;;;;;11.40;3.00;;;;;;;;;;4997685;28;20049;-63
2024/01/28 14:00:09;;;;;;;7.65;2.90;;;;;;;;;;5007474;28;20152;-63
2024/01/28 14:02:36;;;;;;;5.05;1.83;;;;;;;;;;4997197;28;20052;-63
2024/01/28 14:05:07;;;;;;;5.20;1.95;;;;;;;;;;5006873;28;20077;-62
2024/01/28 14:07:44;;;;;;;5.28;2.30;;;;;;;;;;4996796;28;20167;-62
2024/01/28 14:10:13;;;;;;;7.68;2.20;;;;;;;;;;5005414;28;20057;-64
2024/01/28 14:12:40;;;;;;;7.65;2.10;;;;;;;;;;4999051;28;20189;-62
2024/01/28 14:15:09;;;;;;;6.72;2.17;;;;;;;;;;5008148;28;20057;-63
2024/01/28 14:17:36;;;;;;;5.53;2.00;;;;;;;;;;4995354;28;20057;-62
2024/01/28 14:20:04;;;;;;;5.78;2.42;;;;;;;;;;4993992;28;20061;-65
2024/01/28 14:22:31;;;;;;;5.80;2.25;;;;;;;;;;5000079;28;20050;-63
2024/01/28 14:25:14;;;;;;;4.90;1.98;;;;;;;;;;4959330;28;20042;-62
2024/01/28 14:27:48;;;;;;;10.05;2.47;;;;;;;;;;4996384;28;20049;-63
2024/01/28 14:30:19;;;;;;;9.23;2.15;;;;;;;;;;5011842;28;20057;-63
2024/01/28 14:32:47;;;;;;;9.40;2.42;;;;;;;;;;5010618;28;20042;-62
2024/01/28 14:35:16;;;;;;;7.35;2.50;;;;;;;;;;4943763;28;20058;-63
2024/01/28 14:37:49;;;;;;;6.47;2.28;;;;;;;;;;4931849;28;20054;-63
2024/01/28 14:40:28;;;;;;;6.20;2.03;;;;;;;;;;5010930;28;20057;-63
2024/01/28 14:42:56;;;;;;;9.07;2.08;;;;;;;;;;4995997;28;20242;-62
2024/01/28 14:45:30;;;;;;;7.93;2.17;;;;;;;;;;4967447;28;20057;-63
2024/01/28 14:48:00;;;;;;;6.93;2.00;;;;;;;;;;4992094;28;20132;-62